createdAt,value
2018-07-25T00:00:47.844Z,20.50
2018-07-25T00:03:16.297Z,18.50
2018-07-25T00:05:44.430Z,20.70
2018-07-25T00:08:12.936Z,18.17
2018-07-25T00:10:46.764Z,20.27
2018-07-25T00:13:15.234Z,18.30
2018-07-25T00:15:43.470Z,18.40
2018-07-25T00:18:11.978Z,18.23
2018-07-25T00:20:40.445Z,17.33
2018-07-25T00:23:09.111Z,16.80
2018-07-25T00:25:37.513Z,17.13
2018-07-25T00:28:05.995Z,18.43
2018-07-25T00:30:34.569Z,17.37
2018-07-25T00:33:02.925Z,18.33
2018-07-25T00:35:31.417Z,17.60
2018-07-25T00:37:59.950Z,17.90
2018-07-25T00:40:28.601Z,19.20
2018-07-25T00:42:57.354Z,18.43
2018-07-25T00:45:25.484Z,18.60
2018-07-25T00:47:53.713Z,17.50
2018-07-25T00:50:22.367Z,18.10
2018-07-25T00:52:50.872Z,16.67
2018-07-25T00:55:19.643Z,18.10
2018-07-25T00:57:47.896Z,18.50
2018-07-25T01:00:18.438Z,16.97
2018-07-25T01:02:47.797Z,18.30
2018-07-25T01:05:16.411Z,18.10
2018-07-25T01:07:45.122Z,19.27
2018-07-25T01:10:13.414Z,18.40
2018-07-25T01:12:42.034Z,19.30
2018-07-25T01:15:11.188Z,18.80
2018-07-25T01:17:39.813Z,19.63
2018-07-25T01:20:08.355Z,18.93
2018-07-25T01:22:36.537Z,19.17
2018-07-25T01:25:05.458Z,20.03
2018-07-25T01:27:34.056Z,18.90
2018-07-25T01:30:02.697Z,20.70
2018-07-25T01:32:30.820Z,20.10
2018-07-25T01:34:59.410Z,20.50
2018-07-25T01:37:28.052Z,18.77
2018-07-25T01:39:56.525Z,20.30
2018-07-25T01:42:25.064Z,19.50
2018-07-25T01:44:53.664Z,19.90
2018-07-25T01:47:22.103Z,18.37
2018-07-25T01:49:50.567Z,22.27
2018-07-25T01:52:19.135Z,21.63
2018-07-25T01:54:47.571Z,20.17
2018-07-25T01:57:15.720Z,21.07
2018-07-25T01:59:44.239Z,20.77
2018-07-25T02:02:12.953Z,21.80
2018-07-25T02:04:41.751Z,21.70
2018-07-25T02:07:09.915Z,21.97
2018-07-25T02:09:38.450Z,23.60
2018-07-25T02:12:06.576Z,20.30
2018-07-25T02:14:35.104Z,21.07
2018-07-25T02:17:03.771Z,20.03
2018-07-25T02:19:32.381Z,20.73
2018-07-25T02:22:00.799Z,21.90
2018-07-25T02:24:29.433Z,20.60
2018-07-25T02:26:58.017Z,21.23
2018-07-25T02:29:26.235Z,19.03
2018-07-25T02:31:54.748Z,20.83
2018-07-25T02:34:23.417Z,18.87
2018-07-25T02:36:52.609Z,20.13
2018-07-25T02:39:20.782Z,18.80
2018-07-25T02:41:49.378Z,19.37
2018-07-25T02:44:18.002Z,22.60
2018-07-25T02:46:46.542Z,19.33
2018-07-25T02:49:15.150Z,20.23
2018-07-25T02:51:43.766Z,20.50
2018-07-25T02:54:12.249Z,22.10
2018-07-25T02:56:43.317Z,20.80
2018-07-25T02:59:12.204Z,21.40
2018-07-25T03:01:40.332Z,22.23
2018-07-25T03:04:08.911Z,20.03
2018-07-25T03:06:37.089Z,22.17
2018-07-25T03:09:06.773Z,21.77
2018-07-25T03:11:35.188Z,21.50
2018-07-25T03:14:03.831Z,21.73
2018-07-25T03:16:32.332Z,23.80
2018-07-25T03:19:00.763Z,23.00
2018-07-25T03:21:28.976Z,25.23
2018-07-25T03:23:57.402Z,24.10
2018-07-25T03:26:25.899Z,22.00
2018-07-25T03:28:54.466Z,23.13
2018-07-25T03:31:23.100Z,24.63
2018-07-25T03:33:51.573Z,24.37
2018-07-25T03:36:20.017Z,23.90
2018-07-25T03:38:48.567Z,23.27
2018-07-25T03:41:16.991Z,24.73
2018-07-25T03:43:45.490Z,23.73
2018-07-25T03:46:14.084Z,27.10
2018-07-25T03:48:42.554Z,24.20
2018-07-25T03:51:10.903Z,26.37
2018-07-25T03:53:39.088Z,24.93
2018-07-25T03:56:07.268Z,23.83
2018-07-25T03:58:35.731Z,22.80
2018-07-25T04:01:03.990Z,26.07
2018-07-25T04:03:33.546Z,22.90
2018-07-25T04:06:01.828Z,24.07
2018-07-25T04:08:30.277Z,25.03
2018-07-25T04:10:58.825Z,23.70
2018-07-25T04:13:27.314Z,25.03
2018-07-25T04:15:55.500Z,24.37
2018-07-25T04:18:23.999Z,24.40
2018-07-25T04:20:52.499Z,22.50
2018-07-25T04:23:20.948Z,22.10
2018-07-25T04:25:50.296Z,22.13
2018-07-25T04:28:18.822Z,21.70
2018-07-25T04:30:47.340Z,23.50
2018-07-25T04:33:15.794Z,24.63
2018-07-25T04:35:44.288Z,22.90
2018-07-25T04:38:12.778Z,26.87
2018-07-25T04:40:41.280Z,25.00
2018-07-25T04:43:16.201Z,24.67
2018-07-25T04:45:44.715Z,23.27
2018-07-25T04:48:13.175Z,24.50
2018-07-25T04:50:41.672Z,26.03
2018-07-25T04:53:10.143Z,26.27
2018-07-25T04:55:38.606Z,26.10
2018-07-25T04:58:07.087Z,24.97
2018-07-25T05:00:35.650Z,24.40
2018-07-25T05:03:04.151Z,25.57
2018-07-25T05:05:32.712Z,26.10
2018-07-25T05:08:01.184Z,24.40
2018-07-25T05:10:30.474Z,25.37
2018-07-25T05:12:59.499Z,24.27
2018-07-25T05:15:28.485Z,24.50
2018-07-25T05:17:57.412Z,25.63
2018-07-25T05:20:26.929Z,25.17
2018-07-25T05:22:56.207Z,24.00
2018-07-25T05:25:25.277Z,23.47
2018-07-25T05:27:54.917Z,22.43
2018-07-25T05:30:23.972Z,23.73
2018-07-25T05:32:52.434Z,22.50
2018-07-25T05:35:22.024Z,19.33
2018-07-25T05:37:50.502Z,20.53
2018-07-25T05:40:19.881Z,19.00
2018-07-25T05:42:51.437Z,18.83
2018-07-25T05:45:20.387Z,17.80
2018-07-25T05:47:48.988Z,17.20
2018-07-25T05:50:18.807Z,19.27
2018-07-25T05:52:47.507Z,19.70
2018-07-25T05:55:16.280Z,18.43
2018-07-25T05:57:44.792Z,18.87
2018-07-25T06:00:13.668Z,20.47
2018-07-25T06:02:43.400Z,19.77
2018-07-25T06:05:12.596Z,18.40
2018-07-25T06:07:41.064Z,16.30
2018-07-25T06:10:10.186Z,18.97
2018-07-25T06:12:43.353Z,17.60
2018-07-25T06:15:19.573Z,19.50
2018-07-25T06:17:48.737Z,16.80
2018-07-25T06:20:21.772Z,17.20
2018-07-25T06:22:50.594Z,18.33
2018-07-25T06:25:20.153Z,18.73
2018-07-25T06:27:49.369Z,15.50
2018-07-25T06:30:18.528Z,14.97
2018-07-25T06:32:47.152Z,15.37
2018-07-25T06:35:16.131Z,15.50
2018-07-25T06:37:45.093Z,16.30
2018-07-25T06:40:14.962Z,15.73
2018-07-25T06:42:43.655Z,14.03
2018-07-25T06:45:15.619Z,14.00
2018-07-25T06:47:44.430Z,15.00
2018-07-25T06:50:13.236Z,14.10
2018-07-25T06:52:42.324Z,14.20
2018-07-25T06:55:10.988Z,14.30
2018-07-25T06:57:40.312Z,15.33
2018-07-25T07:00:10.415Z,13.67
2018-07-25T07:02:39.817Z,14.67
2018-07-25T07:05:09.297Z,14.50
2018-07-25T07:07:39.175Z,13.73
2018-07-25T07:10:08.878Z,13.60
2018-07-25T07:12:39.438Z,12.07
2018-07-25T07:15:10.836Z,12.20
2018-07-25T07:17:41.441Z,13.10
2018-07-25T07:20:09.976Z,12.63
2018-07-25T07:22:38.506Z,13.97
2018-07-25T07:25:08.475Z,12.30
2018-07-25T07:27:36.947Z,12.10
2018-07-25T07:30:06.948Z,12.53
2018-07-25T07:32:38.133Z,13.50
2018-07-25T07:35:09.271Z,12.37
2018-07-25T07:37:37.996Z,12.47
2018-07-25T07:40:06.556Z,11.60
2018-07-25T07:42:35.259Z,12.40
2018-07-25T07:45:06.366Z,11.23
2018-07-25T07:47:35.854Z,12.60
2018-07-25T07:50:05.389Z,12.43
2018-07-25T07:52:35.816Z,12.70
2018-07-25T07:55:05.865Z,11.97
2018-07-25T07:57:35.579Z,11.57
2018-07-25T08:00:04.939Z,12.87
2018-07-25T08:02:33.469Z,11.23
2018-07-25T08:05:02.120Z,12.07
2018-07-25T08:07:30.595Z,12.20
2018-07-25T08:09:59.079Z,10.27
2018-07-25T08:12:27.620Z,11.27
2018-07-25T08:14:56.116Z,12.20
2018-07-25T08:17:24.616Z,11.27
2018-07-25T08:19:53.093Z,11.97
2018-07-25T08:22:21.640Z,11.20
2018-07-25T08:24:50.181Z,11.73
2018-07-25T08:27:18.704Z,11.30
2018-07-25T08:29:47.235Z,11.90
2018-07-25T08:32:16.705Z,10.63
2018-07-25T08:34:47.365Z,10.70
2018-07-25T08:37:15.883Z,11.10
2018-07-25T08:39:44.372Z,10.73
2018-07-25T08:42:12.907Z,10.60
2018-07-25T08:44:48.183Z,12.70
2018-07-25T08:47:18.389Z,12.43
2018-07-25T08:49:48.225Z,11.77
2018-07-25T08:52:17.289Z,10.83
2018-07-25T08:54:46.405Z,11.70
2018-07-25T08:57:15.178Z,11.17
2018-07-25T08:59:45.065Z,11.67
2018-07-25T09:02:13.501Z,10.20
2018-07-25T09:04:42.504Z,10.13
2018-07-25T09:07:11.103Z,12.00
2018-07-25T09:09:40.384Z,11.13
2018-07-25T09:12:09.256Z,10.60
2018-07-25T09:14:41.493Z,11.00
2018-07-25T09:17:10.297Z,11.63
2018-07-25T09:19:39.230Z,11.53
2018-07-25T09:22:08.154Z,10.90
2018-07-25T09:24:39.901Z,10.70
2018-07-25T09:27:08.973Z,11.63
2018-07-25T09:29:39.681Z,11.17
2018-07-25T09:32:08.299Z,11.90
2018-07-25T09:34:38.907Z,11.60
2018-07-25T09:37:08.872Z,11.30
2018-07-25T09:39:38.573Z,12.37
2018-07-25T09:42:07.535Z,11.77
2018-07-25T09:44:36.123Z,12.40
2018-07-25T09:47:05.063Z,11.47
2018-07-25T09:49:34.481Z,11.30
2018-07-25T09:52:03.729Z,11.57
2018-07-25T09:54:32.663Z,11.00
2018-07-25T09:57:02.367Z,11.33
2018-07-25T09:59:32.065Z,10.23
2018-07-25T10:02:01.149Z,11.50
2018-07-25T10:04:31.005Z,10.97
2018-07-25T10:07:01.852Z,10.90
2018-07-25T10:09:33.051Z,11.00
2018-07-25T10:12:01.529Z,10.20
2018-07-25T10:14:30.561Z,10.60
2018-07-25T10:16:59.605Z,11.40
2018-07-25T10:19:28.028Z,11.43
2018-07-25T10:21:58.807Z,13.73
2018-07-25T10:24:28.347Z,11.00
2018-07-25T10:26:59.072Z,11.57
2018-07-25T10:29:29.870Z,11.40
2018-07-25T10:32:04.304Z,10.20
2018-07-25T10:34:33.065Z,10.30
2018-07-25T10:37:02.085Z,10.40
2018-07-25T10:39:31.211Z,12.40
2018-07-25T10:41:59.679Z,11.63
2018-07-25T10:44:28.404Z,12.53
2018-07-25T10:46:57.368Z,14.30
2018-07-25T10:49:27.148Z,11.30
2018-07-25T10:51:56.651Z,11.47
2018-07-25T10:54:25.786Z,10.10
2018-07-25T10:56:54.537Z,12.10
2018-07-25T10:59:24.556Z,11.27
2018-07-25T11:01:55.476Z,11.53
2018-07-25T11:04:24.062Z,10.50
2018-07-25T11:06:52.555Z,11.10
2018-07-25T11:09:21.371Z,11.40
2018-07-25T11:11:51.700Z,13.30
2018-07-25T11:14:22.695Z,11.17
2018-07-25T11:16:51.491Z,9.03
2018-07-25T11:19:20.049Z,11.07
2018-07-25T11:21:48.696Z,10.87
2018-07-25T11:24:17.859Z,9.70
2018-07-25T11:26:47.291Z,11.67
2018-07-25T11:29:16.436Z,10.63
2018-07-25T11:31:50.743Z,11.60
2018-07-25T11:34:21.823Z,11.40
2018-07-25T11:36:50.352Z,10.90
2018-07-25T11:39:19.592Z,9.40
2018-07-25T11:41:48.212Z,9.20
2018-07-25T11:44:16.745Z,9.30
2018-07-25T11:46:45.257Z,10.63
2018-07-25T11:49:16.965Z,12.67
2018-07-25T11:51:47.997Z,9.50
2018-07-25T11:54:19.140Z,10.87
2018-07-25T11:56:47.922Z,10.00
2018-07-25T11:59:17.752Z,9.70
2018-07-25T12:01:47.198Z,8.60
2018-07-25T12:04:15.830Z,8.27
2018-07-25T12:06:44.343Z,7.00
2018-07-25T12:09:12.913Z,6.43
2018-07-25T12:11:47.048Z,5.60
2018-07-25T12:14:19.482Z,5.00
2018-07-25T12:16:48.030Z,7.13
2018-07-25T12:19:16.203Z,8.83
2018-07-25T12:21:45.190Z,10.97
2018-07-25T12:24:14.330Z,11.90
2018-07-25T12:26:43.807Z,10.40
2018-07-25T12:29:15.198Z,14.67
2018-07-25T12:31:43.937Z,14.47
2018-07-25T12:34:12.674Z,17.37
2018-07-25T12:36:41.173Z,18.83
2018-07-25T12:39:10.219Z,19.70
2018-07-25T12:41:39.247Z,23.60
2018-07-25T12:44:12.996Z,24.00
2018-07-25T12:46:41.518Z,20.23
2018-07-25T12:49:10.101Z,16.40
2018-07-25T12:51:40.350Z,15.63
2018-07-25T12:54:10.835Z,11.30
2018-07-25T12:56:41.131Z,12.53
2018-07-25T12:59:12.161Z,9.80
2018-07-25T13:01:42.746Z,9.70
2018-07-25T13:04:11.760Z,9.57
2018-07-25T13:06:42.610Z,9.67
2018-07-25T13:09:12.540Z,10.00
2018-07-25T13:11:41.262Z,9.63
2018-07-25T13:14:10.007Z,9.43
2018-07-25T13:16:38.635Z,8.30
2018-07-25T13:19:07.152Z,9.40
2018-07-25T13:21:35.808Z,8.50
2018-07-25T13:24:04.282Z,7.90
2018-07-25T13:26:32.704Z,8.40
2018-07-25T13:29:01.539Z,10.13
2018-07-25T13:31:30.023Z,9.10
2018-07-25T13:33:59.684Z,9.57
2018-07-25T13:36:30.183Z,9.90
2018-07-25T13:38:59.797Z,9.70
2018-07-25T13:41:28.421Z,8.40
2018-07-25T13:43:57.036Z,7.37
2018-07-25T13:46:25.677Z,8.03
2018-07-25T13:48:54.220Z,8.37
2018-07-25T13:51:22.922Z,7.60
2018-07-25T13:53:51.467Z,6.70
2018-07-25T13:56:20.004Z,7.90
2018-07-25T13:58:48.662Z,6.60
2018-07-25T14:01:17.127Z,6.43
2018-07-25T14:03:45.592Z,6.60
2018-07-25T14:06:14.137Z,6.10
2018-07-25T14:08:42.682Z,6.70
2018-07-25T14:11:14.851Z,6.10
2018-07-25T14:13:56.913Z,5.93
2018-07-25T14:16:28.418Z,6.90
2018-07-25T14:18:57.194Z,7.63
2018-07-25T14:21:25.870Z,7.50
2018-07-25T14:23:54.754Z,4.70
2018-07-25T14:26:29.868Z,4.80
2018-07-25T14:28:59.548Z,5.13
2018-07-25T14:31:28.337Z,4.77
2018-07-25T14:33:57.107Z,4.50
2018-07-25T14:36:25.808Z,4.80
2018-07-25T14:38:58.289Z,5.13
2018-07-25T14:41:26.896Z,4.43
2018-07-25T14:44:00.192Z,4.40
2018-07-25T14:46:28.429Z,4.60
2018-07-25T14:48:56.663Z,4.97
2018-07-25T14:54:32.479Z,5.60
2018-07-25T14:57:00.759Z,4.90
2018-07-25T15:02:08.774Z,4.37
2018-07-25T15:04:37.519Z,4.70
2018-07-25T15:09:10.594Z,4.20
2018-07-25T15:11:38.869Z,3.63
2018-07-25T15:14:07.285Z,3.30
2018-07-25T15:16:35.842Z,3.30
2018-07-25T15:19:04.526Z,3.43
2018-07-25T15:21:33.132Z,4.20
2018-07-25T15:24:05.032Z,3.80
2018-07-25T15:26:33.700Z,3.57
2018-07-25T15:29:02.833Z,4.33
2018-07-25T15:31:31.402Z,4.17
2018-07-25T15:34:01.073Z,5.07
2018-07-25T15:36:43.191Z,4.50
2018-07-25T15:39:17.360Z,4.57
2018-07-25T15:41:46.837Z,4.40
2018-07-25T15:44:16.015Z,4.33
2018-07-25T15:46:44.938Z,4.10
2018-07-25T15:49:13.477Z,3.60
2018-07-25T15:51:42.146Z,3.90
2018-07-25T15:54:11.427Z,3.87
2018-07-25T15:56:40.155Z,5.10
2018-07-25T15:59:08.913Z,6.20
2018-07-25T16:01:38.463Z,7.43
2018-07-25T16:04:07.285Z,5.67
2018-07-25T16:06:35.907Z,5.73
2018-07-25T16:09:08.617Z,7.77
2018-07-25T16:11:37.023Z,5.60
2018-07-25T16:14:05.254Z,5.93
2018-07-25T16:16:33.905Z,6.27
2018-07-25T16:19:02.484Z,6.47
2018-07-25T16:21:31.230Z,6.33
2018-07-25T16:23:59.869Z,7.23
2018-07-25T16:26:28.058Z,6.40
2018-07-25T16:28:56.607Z,6.90
2018-07-25T16:31:24.826Z,9.87
2018-07-25T16:33:52.992Z,6.90
2018-07-25T16:36:21.566Z,6.80
2018-07-25T16:38:50.240Z,6.63
2018-07-25T16:41:18.557Z,6.67
2018-07-25T16:43:47.025Z,6.73
2018-07-25T16:46:16.194Z,6.63
2018-07-25T16:48:44.840Z,6.50
2018-07-25T16:51:13.382Z,6.80
2018-07-25T16:53:42.012Z,7.27
2018-07-25T16:56:10.592Z,6.03
2018-07-25T16:58:38.789Z,6.40
2018-07-25T17:01:07.462Z,6.50
2018-07-25T17:03:36.673Z,5.20
2018-07-25T17:06:05.261Z,6.17
2018-07-25T17:08:33.821Z,6.00
2018-07-25T17:11:02.021Z,6.33
2018-07-25T17:13:30.547Z,5.60
2018-07-25T17:15:59.247Z,7.03
2018-07-25T17:18:28.397Z,6.40
2018-07-25T17:20:56.903Z,6.20
2018-07-25T17:23:25.595Z,5.40
2018-07-25T17:25:54.525Z,6.70
2018-07-25T17:28:22.758Z,6.07
2018-07-25T17:30:51.636Z,5.57
2018-07-25T17:33:20.249Z,7.33
2018-07-25T17:35:48.841Z,6.73
2018-07-25T17:38:17.367Z,7.97
2018-07-25T17:40:45.942Z,7.37
2018-07-25T17:43:15.218Z,7.70
2018-07-25T17:45:43.888Z,8.57
2018-07-25T17:48:12.351Z,8.17
2018-07-25T17:50:40.895Z,8.63
2018-07-25T17:53:09.211Z,8.70
2018-07-25T17:55:37.868Z,7.93
2018-07-25T17:58:06.914Z,9.17
2018-07-25T18:00:35.495Z,8.97
2018-07-25T18:03:04.460Z,7.20
2018-07-25T18:05:33.072Z,9.23
2018-07-25T18:08:02.474Z,9.47
2018-07-25T18:10:31.038Z,8.30
2018-07-25T18:13:05.062Z,8.80
2018-07-25T18:15:33.686Z,9.33
2018-07-25T18:18:02.240Z,8.50
2018-07-25T18:20:30.809Z,8.43
2018-07-25T18:22:59.692Z,8.87
2018-07-25T18:25:29.260Z,9.00
2018-07-25T18:27:57.516Z,9.27
2018-07-25T18:30:26.138Z,8.60
2018-07-25T18:32:54.811Z,10.27
2018-07-25T18:35:23.407Z,9.17
2018-07-25T18:37:52.097Z,9.23
2018-07-25T18:40:20.474Z,8.93
2018-07-25T18:42:49.100Z,8.40
2018-07-25T18:45:17.673Z,9.53
2018-07-25T18:47:47.258Z,10.57
2018-07-25T18:50:16.988Z,9.03
2018-07-25T18:52:45.617Z,8.23
2018-07-25T18:55:15.089Z,9.27
2018-07-25T18:57:44.162Z,10.20
2018-07-25T19:00:12.820Z,9.60
2018-07-25T19:02:44.378Z,11.37
2018-07-25T19:05:14.798Z,9.70
2018-07-25T19:07:43.020Z,9.97
2018-07-25T19:10:11.721Z,10.13
2018-07-25T19:12:40.300Z,10.90
2018-07-25T19:15:43.583Z,10.37
2018-07-25T19:18:11.964Z,10.43
2018-07-25T19:20:40.930Z,10.03
2018-07-25T19:23:11.260Z,10.13
2018-07-25T19:25:40.934Z,10.53
2018-07-25T19:28:10.228Z,11.17
2018-07-25T19:30:39.502Z,10.83
2018-07-25T19:33:08.228Z,12.17
2018-07-25T19:35:36.926Z,11.13
2018-07-25T19:38:05.544Z,10.70
2018-07-25T19:40:34.680Z,11.13
2018-07-25T19:43:04.394Z,12.10
2018-07-25T19:45:33.170Z,10.90
2018-07-25T19:48:02.347Z,11.60
2018-07-25T19:50:33.624Z,10.67
2018-07-25T19:53:02.616Z,11.93
2018-07-25T19:55:30.866Z,12.20
2018-07-25T19:57:59.485Z,10.30
2018-07-25T20:00:28.469Z,10.33
2018-07-25T20:02:57.943Z,10.57
2018-07-25T20:05:26.178Z,10.37
2018-07-25T20:07:54.868Z,10.77
2018-07-25T20:10:23.493Z,12.33
2018-07-25T20:12:52.575Z,11.20
2018-07-25T20:15:26.543Z,12.00
2018-07-25T20:17:56.673Z,12.80
2018-07-25T20:20:25.053Z,11.80
2018-07-25T20:22:53.647Z,12.37
2018-07-25T20:25:22.171Z,11.07
2018-07-25T20:27:51.994Z,13.67
2018-07-25T20:30:20.913Z,13.10
2018-07-25T20:32:49.611Z,13.13
2018-07-25T20:35:18.388Z,12.83
2018-07-25T20:37:46.909Z,13.30
2018-07-25T20:40:15.479Z,13.53
2018-07-25T20:42:44.053Z,11.83
2018-07-25T20:45:12.586Z,12.73
2018-07-25T20:47:41.694Z,12.40
2018-07-25T20:50:11.078Z,13.90
2018-07-25T20:52:39.513Z,13.10
2018-07-25T20:55:07.681Z,12.97
2018-07-25T20:57:37.022Z,14.00
2018-07-25T21:00:05.551Z,14.50
2018-07-25T21:02:34.217Z,12.73
2018-07-25T21:05:02.742Z,12.00
2018-07-25T21:07:31.491Z,13.87
2018-07-25T21:09:59.996Z,12.67
2018-07-25T21:12:28.160Z,13.77
2018-07-25T21:14:56.683Z,13.77
2018-07-25T21:17:25.203Z,13.37
2018-07-25T21:19:53.747Z,14.53
2018-07-25T21:22:22.738Z,13.00
2018-07-25T21:24:51.271Z,11.60
2018-07-25T21:27:19.815Z,10.00
2018-07-25T21:29:48.356Z,10.90
2018-07-25T21:32:17.244Z,10.70
2018-07-25T21:34:45.854Z,11.00
2018-07-25T21:37:14.316Z,9.37
2018-07-25T21:39:42.428Z,10.33
2018-07-25T21:42:11.293Z,10.23
2018-07-25T21:44:40.420Z,11.60
2018-07-25T21:47:08.931Z,10.77
2018-07-25T21:49:37.108Z,10.83
2018-07-25T21:52:05.663Z,11.93
2018-07-25T21:54:34.090Z,12.07
2018-07-25T21:59:58.574Z,11.80
2018-07-25T22:02:27.071Z,11.80
2018-07-25T22:04:55.511Z,13.90
2018-07-25T22:07:24.009Z,12.40
2018-07-25T22:09:52.460Z,12.10
2018-07-25T22:12:20.612Z,12.97
2018-07-25T22:14:48.759Z,13.83
2018-07-25T22:17:17.202Z,12.80
2018-07-25T22:19:45.630Z,12.07
2018-07-25T22:22:14.174Z,12.33
2018-07-25T22:24:42.608Z,11.83
2018-07-25T22:27:11.157Z,12.20
2018-07-25T22:29:39.365Z,13.43
2018-07-25T22:32:07.514Z,12.60
2018-07-25T22:34:36.081Z,13.90
2018-07-25T22:37:04.260Z,12.70
2018-07-25T22:39:32.389Z,12.80
2018-07-25T22:42:00.932Z,15.60
2018-07-25T22:44:29.083Z,15.00
2018-07-25T22:46:58.239Z,15.17
2018-07-25T22:49:26.729Z,15.90
2018-07-25T22:51:55.235Z,15.07
2018-07-25T22:54:23.349Z,15.33
2018-07-25T22:56:51.862Z,14.93
2018-07-25T22:59:20.314Z,16.77
2018-07-25T23:01:48.851Z,15.40
2018-07-25T23:04:17.298Z,17.37
2018-07-25T23:06:45.723Z,16.47
2018-07-25T23:09:14.202Z,15.83
2018-07-25T23:11:42.398Z,15.67
2018-07-25T23:14:10.551Z,16.53
2018-07-25T23:16:39.006Z,17.10
2018-07-25T23:19:07.227Z,16.87
2018-07-25T23:21:35.693Z,16.60
2018-07-25T23:24:03.840Z,18.10
2018-07-25T23:26:31.963Z,17.90
2018-07-25T23:29:00.564Z,17.60
2018-07-25T23:31:29.026Z,17.93
2018-07-25T23:33:57.471Z,16.30
2018-07-25T23:36:25.662Z,15.70
2018-07-25T23:38:53.779Z,16.20
2018-07-25T23:41:22.205Z,16.60
2018-07-25T23:43:50.761Z,16.50
2018-07-25T23:46:19.201Z,15.90
2018-07-25T23:48:48.423Z,17.30
2018-07-25T23:51:16.911Z,16.27
2018-07-25T23:53:45.017Z,16.60
2018-07-25T23:56:13.463Z,16.50
2018-07-25T23:58:41.967Z,15.23
